sensor_id;sensor_type;location;lat;lon;timestamp;pressure;altitude;pressure_sealevel;temperature;humidity
67931;BME280;54726;52.000;5.954;2022-09-24T00:00:44;100933.81;;;12.36;94.97
67931;BME280;54726;52.000;5.954;2022-09-24T00:01:45;100938.13;;;12.39;94.84
67931;BME280;54726;52.000;5.954;2022-09-24T00:02:46;100938.13;;;12.39;94.80
67931;BME280;54726;52.000;5.954;2022-09-24T00:03:49;100940.78;;;12.39;94.79
67931;BME280;54726;52.000;5.954;2022-09-24T00:04:50;100929.44;;;12.35;94.84
67931;BME280;54726;52.000;5.954;2022-09-24T00:05:51;100939.84;;;12.40;94.96
67931;BME280;54726;52.000;5.954;2022-09-24T00:06:52;100941.66;;;12.39;94.75
67931;BME280;54726;52.000;5.954;2022-09-24T00:07:53;100938.13;;;12.39;94.95
67931;BME280;54726;52.000;5.954;2022-09-24T00:08:54;100938.13;;;12.39;94.87
67931;BME280;54726;52.000;5.954;2022-09-24T00:09:55;100942.50;;;12.40;94.93
67931;BME280;54726;52.000;5.954;2022-09-24T00:10:55;100935.53;;;12.37;95.03
67931;BME280;54726;52.000;5.954;2022-09-24T00:11:56;100933.72;;;12.38;94.88
67931;BME280;54726;52.000;5.954;2022-09-24T00:12:56;100933.81;;;12.36;95.09
67931;BME280;54726;52.000;5.954;2022-09-24T00:13:59;100933.72;;;12.38;95.12
67931;BME280;54726;52.000;5.954;2022-09-24T00:14:59;100936.38;;;12.38;95.09
67931;BME280;54726;52.000;5.954;2022-09-24T00:16:01;100935.47;;;12.39;95.03
67931;BME280;54726;52.000;5.954;2022-09-24T00:17:02;100937.31;;;12.37;95.27
67931;BME280;54726;52.000;5.954;2022-09-24T00:18:03;100931.16;;;12.36;95.37
67931;BME280;54726;52.000;5.954;2022-09-24T00:19:04;100929.44;;;12.35;95.21
67931;BME280;54726;52.000;5.954;2022-09-24T00:20:05;100925.13;;;12.32;95.19
67931;BME280;54726;52.000;5.954;2022-09-24T00:21:14;100929.28;;;12.38;95.05
67931;BME280;54726;52.000;5.954;2022-09-24T00:22:15;100931.06;;;12.38;95.05
67931;BME280;54726;52.000;5.954;2022-09-24T00:23:15;100932.88;;;12.37;95.06
67931;BME280;54726;52.000;5.954;2022-09-24T00:24:16;100925.13;;;12.32;95.14
67931;BME280;54726;52.000;5.954;2022-09-24T00:25:16;100928.41;;;12.38;95.13
67931;BME280;54726;52.000;5.954;2022-09-24T00:26:17;100929.28;;;12.38;95.23
67931;BME280;54726;52.000;5.954;2022-09-24T00:27:18;100933.72;;;12.38;95.18
67931;BME280;54726;52.000;5.954;2022-09-24T00:28:18;100929.28;;;12.38;95.11
67931;BME280;54726;52.000;5.954;2022-09-24T00:29:22;100921.47;;;12.35;95.14
67931;BME280;54726;52.000;5.954;2022-09-24T00:30:23;100922.22;;;12.37;95.35
67931;BME280;54726;52.000;5.954;2022-09-24T00:31:24;100926.78;;;12.35;95.17
67931;BME280;54726;52.000;5.954;2022-09-24T00:32:24;100922.22;;;12.37;95.45
67931;BME280;54726;52.000;5.954;2022-09-24T00:33:25;100921.38;;;12.37;95.36
67931;BME280;54726;52.000;5.954;2022-09-24T00:34:26;100925.84;;;12.36;95.50
67931;BME280;54726;52.000;5.954;2022-09-24T00:35:26;100917.91;;;12.35;95.57
67931;BME280;54726;52.000;5.954;2022-09-24T00:36:27;100923.22;;;12.35;95.64
67931;BME280;54726;52.000;5.954;2022-09-24T00:37:27;100917.91;;;12.35;95.67
67931;BME280;54726;52.000;5.954;2022-09-24T00:38:28;100912.69;;;12.33;95.79
67931;BME280;54726;52.000;5.954;2022-09-24T00:39:29;100913.47;;;12.35;95.46
67931;BME280;54726;52.000;5.954;2022-09-24T00:40:31;100914.34;;;12.36;95.58
67931;BME280;54726;52.000;5.954;2022-09-24T00:41:35;100903.75;;;12.34;95.55
67931;BME280;54726;52.000;5.954;2022-09-24T00:42:35;100916.91;;;12.37;95.72
67931;BME280;54726;52.000;5.954;2022-09-24T00:43:36;100921.38;;;12.37;95.72
67931;BME280;54726;52.000;5.954;2022-09-24T00:44:52;100917.91;;;12.35;95.79
67931;BME280;54726;52.000;5.954;2022-09-24T00:45:56;100917.91;;;12.35;95.71
67931;BME280;54726;52.000;5.954;2022-09-24T00:46:57;100916.13;;;12.35;95.74
67931;BME280;54726;52.000;5.954;2022-09-24T00:47:58;100912.59;;;12.35;95.70
67931;BME280;54726;52.000;5.954;2022-09-24T00:49:00;100914.34;;;12.36;95.96
67931;BME280;54726;52.000;5.954;2022-09-24T00:50:12;100914.41;;;12.34;95.99
67931;BME280;54726;52.000;5.954;2022-09-24T00:51:16;100912.59;;;12.35;95.77
67931;BME280;54726;52.000;5.954;2022-09-24T00:52:18;100904.59;;;12.35;95.68
67931;BME280;54726;52.000;5.954;2022-09-24T00:53:20;100915.19;;;12.36;95.89
67931;BME280;54726;52.000;5.954;2022-09-24T00:54:24;100910.72;;;12.37;95.89
67931;BME280;54726;52.000;5.954;2022-09-24T00:55:26;100905.41;;;12.37;95.76
67931;BME280;54726;52.000;5.954;2022-09-24T00:56:28;100905.50;;;12.35;95.70
67931;BME280;54726;52.000;5.954;2022-09-24T00:57:30;100899.59;;;12.28;95.93
67931;BME280;54726;52.000;5.954;2022-09-24T00:58:31;100903.84;;;12.32;96.09
67931;BME280;54726;52.000;5.954;2022-09-24T00:59:31;100901.19;;;12.32;96.08
67931;BME280;54726;52.000;5.954;2022-09-24T01:00:35;100896.63;;;12.35;95.95
67931;BME280;54726;52.000;5.954;2022-09-24T01:01:36;100894.91;;;12.34;95.99
67931;BME280;54726;52.000;5.954;2022-09-24T01:02:38;100896.63;;;12.35;96.07
67931;BME280;54726;52.000;5.954;2022-09-24T01:03:41;100892.25;;;12.34;96.10
67931;BME280;54726;52.000;5.954;2022-09-24T01:04:42;100882.81;;;12.26;96.07
67931;BME280;54726;52.000;5.954;2022-09-24T01:05:43;100889.59;;;12.34;96.88
67931;BME280;54726;52.000;5.954;2022-09-24T01:06:43;100895.91;;;12.31;96.66
67931;BME280;54726;52.000;5.954;2022-09-24T01:07:44;100894.22;;;12.30;96.52
67931;BME280;54726;52.000;5.954;2022-09-24T01:08:44;100886.44;;;12.25;96.69
67931;BME280;54726;52.000;5.954;2022-09-24T01:09:45;100889.81;;;12.29;96.47
67931;BME280;54726;52.000;5.954;2022-09-24T01:10:58;100889.91;;;12.27;96.32
67931;BME280;54726;52.000;5.954;2022-09-24T01:12:07;100891.59;;;12.28;96.42
67931;BME280;54726;52.000;5.954;2022-09-24T01:13:26;100882.13;;;12.23;96.17
67931;BME280;54726;52.000;5.954;2022-09-24T01:14:42;100894.34;;;12.27;96.32
67931;BME280;54726;52.000;5.954;2022-09-24T01:15:52;100886.44;;;12.25;96.16
67931;BME280;54726;52.000;5.954;2022-09-24T01:17:05;100879.41;;;12.24;96.28
67931;BME280;54726;52.000;5.954;2022-09-24T01:18:13;100881.97;;;12.26;96.11
67931;BME280;54726;52.000;5.954;2022-09-24T01:19:29;100882.97;;;12.23;96.17
67931;BME280;54726;52.000;5.954;2022-09-24T01:20:58;100882.97;;;12.23;96.16
67931;BME280;54726;52.000;5.954;2022-09-24T01:22:07;100885.63;;;12.23;96.14
67931;BME280;54726;52.000;5.954;2022-09-24T01:23:26;100881.25;;;12.22;96.01
67931;BME280;54726;52.000;5.954;2022-09-24T01:24:52;100873.34;;;12.21;96.18
67931;BME280;54726;52.000;5.954;2022-09-24T01:26:11;100880.41;;;12.22;96.02
67931;BME280;54726;52.000;5.954;2022-09-24T01:27:16;100880.47;;;12.20;96.03
67931;BME280;54726;52.000;5.954;2022-09-24T01:28:32;100869.97;;;12.17;96.02
67931;BME280;54726;52.000;5.954;2022-09-24T01:29:44;100879.53;;;12.21;96.05
67931;BME280;54726;52.000;5.954;2022-09-24T01:30:49;100874.22;;;12.21;96.07
67931;BME280;54726;52.000;5.954;2022-09-24T01:31:58;100863.72;;;12.18;95.96
67931;BME280;54726;52.000;5.954;2022-09-24T01:33:02;100870.63;;;12.22;95.94
67931;BME280;54726;52.000;5.954;2022-09-24T01:34:04;100865.38;;;12.21;95.75
67931;BME280;54726;52.000;5.954;2022-09-24T01:35:10;100870.63;;;12.22;96.02
67931;BME280;54726;52.000;5.954;2022-09-24T01:36:14;100849.84;;;12.12;96.32
67931;BME280;54726;52.000;5.954;2022-09-24T01:37:18;100860.94;;;12.21;96.17
67931;BME280;54726;52.000;5.954;2022-09-24T01:38:22;100867.25;;;12.19;96.29
67931;BME280;54726;52.000;5.954;2022-09-24T01:39:24;100859.34;;;12.17;96.36
67931;BME280;54726;52.000;5.954;2022-09-24T01:40:27;100870.78;;;12.19;96.29
67931;BME280;54726;52.000;5.954;2022-09-24T01:41:30;100857.63;;;12.16;96.42
67931;BME280;54726;52.000;5.954;2022-09-24T01:42:31;100860.13;;;12.19;96.58
67931;BME280;54726;52.000;5.954;2022-09-24T01:43:32;100856.78;;;12.16;96.25
67931;BME280;54726;52.000;5.954;2022-09-24T01:44:34;100867.16;;;12.20;96.41
67931;BME280;54726;52.000;5.954;2022-09-24T01:45:37;100854.81;;;12.19;96.42
67931;BME280;54726;52.000;5.954;2022-09-24T01:46:39;100859.19;;;12.20;96.39
67931;BME280;54726;52.000;5.954;2022-09-24T01:47:41;100859.19;;;12.20;96.54
67931;BME280;54726;52.000;5.954;2022-09-24T01:48:42;100858.28;;;12.21;96.57
67931;BME280;54726;52.000;5.954;2022-09-24T01:49:43;100841.81;;;12.13;96.60
67931;BME280;54726;52.000;5.954;2022-09-24T01:50:48;100852.97;;;12.21;96.71
67931;BME280;54726;52.000;5.954;2022-09-24T01:51:53;100853.97;;;12.19;96.77
67931;BME280;54726;52.000;5.954;2022-09-24T01:53:00;100856.53;;;12.20;96.81
67931;BME280;54726;52.000;5.954;2022-09-24T01:54:06;100847.00;;;12.16;96.80
67931;BME280;54726;52.000;5.954;2022-09-24T01:55:11;100856.53;;;12.20;96.80
67931;BME280;54726;52.000;5.954;2022-09-24T01:56:15;100853.00;;;12.20;96.68
67931;BME280;54726;52.000;5.954;2022-09-24T01:57:21;100849.50;;;12.19;96.84
67931;BME280;54726;52.000;5.954;2022-09-24T01:58:26;100846.91;;;12.18;96.81
67931;BME280;54726;52.000;5.954;2022-09-24T01:59:31;100847.63;;;12.21;96.76
67931;BME280;54726;52.000;5.954;2022-09-24T02:00:38;100847.69;;;12.20;96.78
67931;BME280;54726;52.000;5.954;2022-09-24T02:01:47;100847.63;;;12.21;96.92
67931;BME280;54726;52.000;5.954;2022-09-24T02:02:54;100847.63;;;12.21;96.82
67931;BME280;54726;52.000;5.954;2022-09-24T02:03:57;100847.63;;;12.21;96.82
67931;BME280;54726;52.000;5.954;2022-09-24T02:05:02;100840.56;;;12.20;96.90
67931;BME280;54726;52.000;5.954;2022-09-24T02:06:09;100845.97;;;12.19;97.28
67931;BME280;54726;52.000;5.954;2022-09-24T02:07:16;100846.13;;;12.16;97.07
67931;BME280;54726;52.000;5.954;2022-09-24T02:08:21;100844.31;;;12.16;97.12
67931;BME280;54726;52.000;5.954;2022-09-24T02:09:30;100847.91;;;12.15;97.12
67931;BME280;54726;52.000;5.954;2022-09-24T02:10:37;100845.25;;;12.15;97.26
67931;BME280;54726;52.000;5.954;2022-09-24T02:11:40;100846.19;;;12.14;97.02
67931;BME280;54726;52.000;5.954;2022-09-24T02:12:42;100824.41;;;12.06;97.10
67931;BME280;54726;52.000;5.954;2022-09-24T02:13:47;100827.88;;;12.08;97.01
67931;BME280;54726;52.000;5.954;2022-09-24T02:14:53;100840.00;;;12.14;97.25
67931;BME280;54726;52.000;5.954;2022-09-24T02:15:58;100835.56;;;12.14;97.05
67931;BME280;54726;52.000;5.954;2022-09-24T02:17:00;100832.94;;;12.13;97.10
67931;BME280;54726;52.000;5.954;2022-09-24T02:18:06;100838.22;;;12.14;97.50
67931;BME280;54726;52.000;5.954;2022-09-24T02:19:10;100840.88;;;12.14;97.36
67931;BME280;54726;52.000;5.954;2022-09-24T02:20:15;100840.94;;;12.13;97.37
67931;BME280;54726;52.000;5.954;2022-09-24T02:21:20;100835.69;;;12.11;97.35
67931;BME280;54726;52.000;5.954;2022-09-24T02:22:23;100837.41;;;12.12;96.95
67931;BME280;54726;52.000;5.954;2022-09-24T02:23:25;100836.41;;;12.15;97.38
67931;BME280;54726;52.000;5.954;2022-09-24T02:24:32;100835.56;;;12.14;97.20
67931;BME280;54726;52.000;5.954;2022-09-24T02:25:38;100834.69;;;12.14;97.25
67931;BME280;54726;52.000;5.954;2022-09-24T02:26:41;100834.75;;;12.12;97.07
67931;BME280;54726;52.000;5.954;2022-09-24T02:27:42;100832.25;;;12.09;97.37
67931;BME280;54726;52.000;5.954;2022-09-24T02:28:42;100832.19;;;12.11;97.38
67931;BME280;54726;52.000;5.954;2022-09-24T02:29:43;100835.84;;;12.08;97.42
67931;BME280;54726;52.000;5.954;2022-09-24T02:30:48;100833.09;;;12.09;97.33
67931;BME280;54726;52.000;5.954;2022-09-24T02:31:53;100822.75;;;12.03;97.27
67931;BME280;54726;52.000;5.954;2022-09-24T02:32:55;100836.75;;;12.07;97.54
67931;BME280;54726;52.000;5.954;2022-09-24T02:33:58;100829.59;;;12.09;97.53
67931;BME280;54726;52.000;5.954;2022-09-24T02:35:01;100832.38;;;12.06;97.45
67931;BME280;54726;52.000;5.954;2022-09-24T02:36:02;100822.69;;;12.05;97.65
67931;BME280;54726;52.000;5.954;2022-09-24T02:37:05;100836.72;;;12.08;97.67
67931;BME280;54726;52.000;5.954;2022-09-24T02:38:14;100832.25;;;12.09;97.70
67931;BME280;54726;52.000;5.954;2022-09-24T02:39:15;100818.31;;;12.04;97.44
67931;BME280;54726;52.000;5.954;2022-09-24T02:40:15;100819.19;;;12.04;97.54
67931;BME280;54726;52.000;5.954;2022-09-24T02:41:17;100819.19;;;12.04;97.46
67931;BME280;54726;52.000;5.954;2022-09-24T02:42:18;100820.03;;;12.05;97.45
67931;BME280;54726;52.000;5.954;2022-09-24T02:43:19;100823.34;;;12.10;97.56
67931;BME280;54726;52.000;5.954;2022-09-24T02:44:20;100821.56;;;12.11;97.57
67931;BME280;54726;52.000;5.954;2022-09-24T02:45:20;100826.78;;;12.12;97.72
67931;BME280;54726;52.000;5.954;2022-09-24T02:46:21;100823.34;;;12.10;97.72
67931;BME280;54726;52.000;5.954;2022-09-24T02:47:22;100821.59;;;12.09;97.71
67931;BME280;54726;52.000;5.954;2022-09-24T02:48:23;100815.38;;;12.10;97.71
67931;BME280;54726;52.000;5.954;2022-09-24T02:49:23;100820.69;;;12.10;97.66
67931;BME280;54726;52.000;5.954;2022-09-24T02:50:24;100816.44;;;12.06;97.75
67931;BME280;54726;52.000;5.954;2022-09-24T02:51:26;100811.91;;;12.08;97.67
67931;BME280;54726;52.000;5.954;2022-09-24T02:52:27;100823.34;;;12.10;97.89
67931;BME280;54726;52.000;5.954;2022-09-24T02:53:27;100809.41;;;12.05;97.72
67931;BME280;54726;52.000;5.954;2022-09-24T02:54:28;100821.59;;;12.09;97.78
67931;BME280;54726;52.000;5.954;2022-09-24T02:55:30;100818.94;;;12.09;97.81
67931;BME280;54726;52.000;5.954;2022-09-24T02:56:30;100809.56;;;12.02;98.00
67931;BME280;54726;52.000;5.954;2022-09-24T02:57:31;100814.72;;;12.05;98.07
67931;BME280;54726;52.000;5.954;2022-09-24T02:58:31;100824.34;;;12.07;97.94
67931;BME280;54726;52.000;5.954;2022-09-24T02:59:32;100824.41;;;12.06;97.91
67931;BME280;54726;52.000;5.954;2022-09-24T03:00:32;100825.38;;;12.05;98.22
67931;BME280;54726;52.000;5.954;2022-09-24T03:01:33;100815.72;;;12.02;98.21
67931;BME280;54726;52.000;5.954;2022-09-24T03:02:35;100821.06;;;12.02;98.25
67931;BME280;54726;52.000;5.954;2022-09-24T03:03:36;100813.94;;;12.03;98.23
67931;BME280;54726;52.000;5.954;2022-09-24T03:04:36;100823.63;;;12.04;98.16
67931;BME280;54726;52.000;5.954;2022-09-24T03:05:37;100811.34;;;12.01;98.01
67931;BME280;54726;52.000;5.954;2022-09-24T03:06:37;100818.25;;;12.05;98.27
67931;BME280;54726;52.000;5.954;2022-09-24T03:07:38;100818.25;;;12.05;98.14
67931;BME280;54726;52.000;5.954;2022-09-24T03:08:38;100812.13;;;12.03;98.09
67931;BME280;54726;52.000;5.954;2022-09-24T03:09:39;100807.91;;;11.99;98.24
67931;BME280;54726;52.000;5.954;2022-09-24T03:10:39;100813.88;;;12.04;98.08
67931;BME280;54726;52.000;5.954;2022-09-24T03:11:40;100809.63;;;12.00;98.15
67931;BME280;54726;52.000;5.954;2022-09-24T03:12:40;100800.34;;;11.90;98.17
67931;BME280;54726;52.000;5.954;2022-09-24T03:13:41;100804.66;;;11.93;98.50
67931;BME280;54726;52.000;5.954;2022-09-24T03:14:41;100797.78;;;11.89;98.21
67931;BME280;54726;52.000;5.954;2022-09-24T03:15:42;100818.53;;;11.99;98.28
67931;BME280;54726;52.000;5.954;2022-09-24T03:16:42;100813.22;;;11.99;98.36
67931;BME280;54726;52.000;5.954;2022-09-24T03:17:44;100812.22;;;12.02;98.11
67931;BME280;54726;52.000;5.954;2022-09-24T03:18:45;100816.75;;;12.00;98.27
67931;BME280;54726;52.000;5.954;2022-09-24T03:19:46;100814.06;;;12.00;98.38
67931;BME280;54726;52.000;5.954;2022-09-24T03:20:53;100816.75;;;12.00;98.28
67931;BME280;54726;52.000;5.954;2022-09-24T03:21:54;100813.22;;;11.99;98.23
67931;BME280;54726;52.000;5.954;2022-09-24T03:22:54;100804.59;;;11.94;97.99
67931;BME280;54726;52.000;5.954;2022-09-24T03:23:55;100812.38;;;11.99;98.05
67931;BME280;54726;52.000;5.954;2022-09-24T03:24:55;100815.88;;;11.99;98.48
67931;BME280;54726;52.000;5.954;2022-09-24T03:25:56;100813.13;;;12.01;98.33
67931;BME280;54726;52.000;5.954;2022-09-24T03:26:56;100813.13;;;12.01;98.32
67931;BME280;54726;52.000;5.954;2022-09-24T03:27:57;100802.78;;;11.95;98.37
67931;BME280;54726;52.000;5.954;2022-09-24T03:28:57;100799.34;;;11.93;98.50
67931;BME280;54726;52.000;5.954;2022-09-24T03:29:58;100794.97;;;11.92;98.64
67931;BME280;54726;52.000;5.954;2022-09-24T03:30:58;100807.91;;;11.99;98.33
67931;BME280;54726;52.000;5.954;2022-09-24T03:31:59;100805.16;;;12.01;98.43
67931;BME280;54726;52.000;5.954;2022-09-24T03:33:01;100796.47;;;11.97;98.40
67931;BME280;54726;52.000;5.954;2022-09-24T03:34:01;100802.50;;;12.01;98.37
67931;BME280;54726;52.000;5.954;2022-09-24T03:35:02;100791.22;;;11.96;98.43
67931;BME280;54726;52.000;5.954;2022-09-24T03:36:05;100797.19;;;12.01;98.41
67931;BME280;54726;52.000;5.954;2022-09-24T03:37:06;100788.56;;;11.96;98.45
67931;BME280;54726;52.000;5.954;2022-09-24T03:38:06;100804.31;;;12.00;98.42
67931;BME280;54726;52.000;5.954;2022-09-24T03:39:06;100795.53;;;11.98;98.44
67931;BME280;54726;52.000;5.954;2022-09-24T03:40:08;100803.50;;;11.98;98.45
67931;BME280;54726;52.000;5.954;2022-09-24T03:41:09;100797.47;;;11.95;98.31
67931;BME280;54726;52.000;5.954;2022-09-24T03:42:10;100794.66;;;11.98;98.37
67931;BME280;54726;52.000;5.954;2022-09-24T03:43:10;100785.28;;;11.91;98.56
67931;BME280;54726;52.000;5.954;2022-09-24T03:44:11;100800.00;;;11.98;98.58
67931;BME280;54726;52.000;5.954;2022-09-24T03:45:11;100799.19;;;11.96;98.67
67931;BME280;54726;52.000;5.954;2022-09-24T03:46:12;100793.25;;;11.91;98.76
67931;BME280;54726;52.000;5.954;2022-09-24T03:47:12;100802.09;;;11.91;98.78
67931;BME280;54726;52.000;5.954;2022-09-24T03:48:14;100791.47;;;11.91;98.80
67931;BME280;54726;52.000;5.954;2022-09-24T03:49:15;100800.13;;;11.95;98.71
67931;BME280;54726;52.000;5.954;2022-09-24T03:50:15;100780.28;;;11.83;98.87
67931;BME280;54726;52.000;5.954;2022-09-24T03:51:17;100795.81;;;11.92;99.02
67931;BME280;54726;52.000;5.954;2022-09-24T03:52:18;100788.84;;;11.90;98.82
67931;BME280;54726;52.000;5.954;2022-09-24T03:53:19;100793.25;;;11.91;98.69
67931;BME280;54726;52.000;5.954;2022-09-24T03:54:21;100785.44;;;11.88;98.99
67931;BME280;54726;52.000;5.954;2022-09-24T03:55:22;100783.53;;;11.90;98.45
67931;BME280;54726;52.000;5.954;2022-09-24T03:56:22;100781.81;;;11.89;98.43
67931;BME280;54726;52.000;5.954;2022-09-24T03:57:23;100791.47;;;11.91;98.31
67931;BME280;54726;52.000;5.954;2022-09-24T03:58:24;100796.63;;;11.94;98.46
67931;BME280;54726;52.000;5.954;2022-09-24T03:59:24;100786.84;;;11.95;98.47
67931;BME280;54726;52.000;5.954;2022-09-24T04:00:24;100783.25;;;11.96;98.42
67931;BME280;54726;52.000;5.954;2022-09-24T04:01:25;100789.44;;;11.96;98.87
67931;BME280;54726;52.000;5.954;2022-09-24T04:02:25;100787.69;;;11.95;98.52
67931;BME280;54726;52.000;5.954;2022-09-24T04:03:27;100792.16;;;11.95;98.62
67931;BME280;54726;52.000;5.954;2022-09-24T04:04:28;100781.53;;;11.95;98.51
67931;BME280;54726;52.000;5.954;2022-09-24T04:05:28;100786.84;;;11.95;98.63
67931;BME280;54726;52.000;5.954;2022-09-24T04:06:29;100785.13;;;11.94;98.43
67931;BME280;54726;52.000;5.954;2022-09-24T04:07:29;100783.38;;;11.93;98.72
67931;BME280;54726;52.000;5.954;2022-09-24T04:08:30;100790.34;;;11.95;98.67
67931;BME280;54726;52.000;5.954;2022-09-24T04:09:30;100767.78;;;11.85;98.57
67931;BME280;54726;52.000;5.954;2022-09-24T04:10:31;100781.53;;;11.95;98.59
67931;BME280;54726;52.000;5.954;2022-09-24T04:11:31;100781.53;;;11.95;98.76
67931;BME280;54726;52.000;5.954;2022-09-24T04:12:32;100776.50;;;11.89;98.64
67931;BME280;54726;52.000;5.954;2022-09-24T04:13:32;100784.19;;;11.95;98.77
67931;BME280;54726;52.000;5.954;2022-09-24T04:14:33;100786.00;;;11.94;98.59
67931;BME280;54726;52.000;5.954;2022-09-24T04:15:33;100787.69;;;11.95;98.79
67931;BME280;54726;52.000;5.954;2022-09-24T04:16:34;100785.91;;;11.96;98.74
67931;BME280;54726;52.000;5.954;2022-09-24T04:17:34;100779.81;;;11.94;98.75
67931;BME280;54726;52.000;5.954;2022-09-24T04:18:36;100776.22;;;11.95;98.73
67931;BME280;54726;52.000;5.954;2022-09-24T04:19:36;100760.72;;;11.85;98.90
67931;BME280;54726;52.000;5.954;2022-09-24T04:20:37;100780.81;;;11.91;98.88
67931;BME280;54726;52.000;5.954;2022-09-24T04:21:37;100779.88;;;11.92;98.79
67931;BME280;54726;52.000;5.954;2022-09-24T04:22:38;100783.38;;;11.93;98.96
67931;BME280;54726;52.000;5.954;2022-09-24T04:23:38;100781.69;;;11.92;98.73
67931;BME280;54726;52.000;5.954;2022-09-24T04:24:39;100773.75;;;11.90;99.08
67931;BME280;54726;52.000;5.954;2022-09-24T04:25:39;100771.19;;;11.89;98.85
67931;BME280;54726;52.000;5.954;2022-09-24T04:26:40;100776.50;;;11.89;98.94
67931;BME280;54726;52.000;5.954;2022-09-24T04:27:40;100776.41;;;11.90;98.91
67931;BME280;54726;52.000;5.954;2022-09-24T04:28:41;100774.66;;;11.91;98.92
67931;BME280;54726;52.000;5.954;2022-09-24T04:29:41;100774.66;;;11.91;98.87
67931;BME280;54726;52.000;5.954;2022-09-24T04:30:42;100762.75;;;11.79;98.98
67931;BME280;54726;52.000;5.954;2022-09-24T04:31:42;100770.41;;;11.86;99.11
67931;BME280;54726;52.000;5.954;2022-09-24T04:32:43;100773.06;;;11.86;99.12
67931;BME280;54726;52.000;5.954;2022-09-24T04:33:45;100773.00;;;11.88;99.12
67931;BME280;54726;52.000;5.954;2022-09-24T04:34:45;100776.38;;;11.92;99.08
67931;BME280;54726;52.000;5.954;2022-09-24T04:35:46;100776.38;;;11.92;99.10
67931;BME280;54726;52.000;5.954;2022-09-24T04:36:46;100767.84;;;11.83;99.04
67931;BME280;54726;52.000;5.954;2022-09-24T04:37:47;100777.31;;;11.91;99.00
67931;BME280;54726;52.000;5.954;2022-09-24T04:38:48;100777.31;;;11.91;98.82
67931;BME280;54726;52.000;5.954;2022-09-24T04:39:48;100780.88;;;11.90;99.17
67931;BME280;54726;52.000;5.954;2022-09-24T04:40:48;100768.69;;;11.85;99.20
67931;BME280;54726;52.000;5.954;2022-09-24T04:41:49;100777.38;;;11.89;99.02
67931;BME280;54726;52.000;5.954;2022-09-24T04:42:50;100772.06;;;11.89;99.14
67931;BME280;54726;52.000;5.954;2022-09-24T04:43:50;100759.22;;;11.78;99.02
67931;BME280;54726;52.000;5.954;2022-09-24T04:44:50;100778.38;;;11.86;98.91
67931;BME280;54726;52.000;5.954;2022-09-24T04:45:51;100784.47;;;11.89;98.99
67931;BME280;54726;52.000;5.954;2022-09-24T04:46:51;100771.25;;;11.87;98.86
67931;BME280;54726;52.000;5.954;2022-09-24T04:47:52;100765.28;;;11.82;99.03
67931;BME280;54726;52.000;5.954;2022-09-24T04:48:54;100772.13;;;11.88;99.09
67931;BME280;54726;52.000;5.954;2022-09-24T04:49:55;100778.38;;;11.86;98.91
67931;BME280;54726;52.000;5.954;2022-09-24T04:50:55;100773.91;;;11.87;98.89
67931;BME280;54726;52.000;5.954;2022-09-24T04:51:56;100775.72;;;11.86;98.88
67931;BME280;54726;52.000;5.954;2022-09-24T04:52:56;100774.81;;;11.88;98.73
67931;BME280;54726;52.000;5.954;2022-09-24T04:53:57;100763.41;;;11.84;99.08
67931;BME280;54726;52.000;5.954;2022-09-24T04:54:57;100770.47;;;11.85;99.02
67931;BME280;54726;52.000;5.954;2022-09-24T04:55:58;100770.59;;;11.82;99.48
67931;BME280;54726;52.000;5.954;2022-09-24T04:56:58;100778.47;;;11.83;99.40
67931;BME280;54726;52.000;5.954;2022-09-24T04:57:59;100781.97;;;11.85;98.99
67931;BME280;54726;52.000;5.954;2022-09-24T04:58:59;100775.91;;;11.82;99.29
67931;BME280;54726;52.000;5.954;2022-09-24T05:00:00;100776.66;;;11.85;99.23
67931;BME280;54726;52.000;5.954;2022-09-24T05:01:01;100774.00;;;11.85;99.11
67931;BME280;54726;52.000;5.954;2022-09-24T05:02:01;100773.16;;;11.83;99.17
67931;BME280;54726;52.000;5.954;2022-09-24T05:03:02;100777.63;;;11.83;99.38
67931;BME280;54726;52.000;5.954;2022-09-24T05:04:04;100778.44;;;11.85;98.99
67931;BME280;54726;52.000;5.954;2022-09-24T05:05:05;100779.22;;;11.87;99.20
67931;BME280;54726;52.000;5.954;2022-09-24T05:06:06;100779.22;;;11.87;99.12
67931;BME280;54726;52.000;5.954;2022-09-24T05:07:06;100774.88;;;11.84;98.96
67931;BME280;54726;52.000;5.954;2022-09-24T05:08:07;100784.47;;;11.89;99.10
67931;BME280;54726;52.000;5.954;2022-09-24T05:09:07;100776.66;;;11.85;99.05
67931;BME280;54726;52.000;5.954;2022-09-24T05:10:08;100788.09;;;11.88;99.11
67931;BME280;54726;52.000;5.954;2022-09-24T05:11:08;100781.97;;;11.85;99.15
67931;BME280;54726;52.000;5.954;2022-09-24T05:12:09;100779.34;;;11.84;99.23
67931;BME280;54726;52.000;5.954;2022-09-24T05:13:09;100781.97;;;11.85;99.26
67931;BME280;54726;52.000;5.954;2022-09-24T05:14:10;100788.94;;;11.88;99.18
67931;BME280;54726;52.000;5.954;2022-09-24T05:15:10;100783.69;;;11.86;99.11
67931;BME280;54726;52.000;5.954;2022-09-24T05:16:11;100778.47;;;11.83;99.23
67931;BME280;54726;52.000;5.954;2022-09-24T05:17:11;100781.03;;;11.86;99.14
67931;BME280;54726;52.000;5.954;2022-09-24T05:18:12;100789.00;;;11.86;99.11
67931;BME280;54726;52.000;5.954;2022-09-24T05:19:14;100771.59;;;11.79;99.13
67931;BME280;54726;52.000;5.954;2022-09-24T05:20:14;100780.19;;;11.84;99.22
67931;BME280;54726;52.000;5.954;2022-09-24T05:21:15;100778.38;;;11.86;99.49
67931;BME280;54726;52.000;5.954;2022-09-24T05:22:15;100772.53;;;11.78;99.32
67931;BME280;54726;52.000;5.954;2022-09-24T05:23:16;100771.47;;;11.82;99.42
67931;BME280;54726;52.000;5.954;2022-09-24T05:24:16;100777.69;;;11.81;99.18
67931;BME280;54726;52.000;5.954;2022-09-24T05:25:18;100777.78;;;11.80;99.33
67931;BME280;54726;52.000;5.954;2022-09-24T05:26:19;100780.13;;;11.88;99.37